Hlavní strana
METAR-TAF:

METAR-TAF

Letiště :

Redstone Arsenal, Alabama, Spojené státy americké

zeměpisná šířka: 34-40-43N, zeměpisná délka: 086-41-05W, výška: 209 m

Aktuální stav počasí

Zpráva byla vytvořena před 23 minutami, v 05:58 UTC
Bezvětří
Teplota 4°C
Vlhkost vzduchu 100%
Tlak 1015 hPa
Viditelnost: 16.1 km
Jasno

METAR: KHUA 210558Z AUTO 00000KT 10SM CLR 04/04 A2997 RMK AO2 SLP152 T00390036 10152 20036 401560036 52010

Čas: 01:21 (06:21 UTC)


TAF: chybějící

Stav a předpovědi počasí z více než 4 000 letišť (zprávy METAR a TAF).

Červené a žluté tečky na mapě představují dostupné meteorologické stanice.

Když kurzor umístíte na tečku, zobrazí se název stanice.

Pak kliknutím zobrazíte stav a předpověď počasí.

Chcete-li změnit mapu, kliknutím na zelené tlačítko se znaménkem +mapu přiblížíte, kliknutím na zelené tlačítko se znaménkem – mapu oddálíte a kliknutím na zelené šipky přejdete na sousední mapy.


METAR-TAF: